createdAt,value
2017-11-09T00:03:03.940Z,83.80
2017-11-09T00:05:37.286Z,83.85
2017-11-09T00:08:04.914Z,83.81
2017-11-09T00:10:32.533Z,84.11
2017-11-09T00:13:00.263Z,83.91
2017-11-09T00:15:27.949Z,83.85
2017-11-09T00:17:55.567Z,83.86
2017-11-09T00:20:23.238Z,83.74
2017-11-09T00:22:50.862Z,83.68
2017-11-09T00:25:18.545Z,83.51
2017-11-09T00:27:46.214Z,83.23
2017-11-09T00:30:13.901Z,83.34
2017-11-09T00:32:41.582Z,83.11
2017-11-09T00:35:09.258Z,82.85
2017-11-09T00:37:36.952Z,82.64
2017-11-09T00:40:04.680Z,82.44
2017-11-09T00:42:32.352Z,82.50
2017-11-09T00:44:59.984Z,82.65
2017-11-09T00:47:27.607Z,82.67
2017-11-09T00:49:55.277Z,82.54
2017-11-09T00:52:22.969Z,82.49
2017-11-09T00:54:50.577Z,82.57
2017-11-09T00:57:18.247Z,82.87
2017-11-09T00:59:45.862Z,83.03
2017-11-09T01:02:13.542Z,83.03
2017-11-09T01:04:41.214Z,83.09
2017-11-09T01:07:08.893Z,83.06
2017-11-09T01:09:36.569Z,83.04
2017-11-09T01:12:04.248Z,82.84
2017-11-09T01:14:31.863Z,82.69
2017-11-09T01:16:59.472Z,82.76
2017-11-09T01:19:27.131Z,82.77
2017-11-09T01:21:54.753Z,82.55
2017-11-09T01:24:22.368Z,82.57
2017-11-09T01:26:50.060Z,82.70
2017-11-09T01:29:17.680Z,82.98
2017-11-09T01:31:45.365Z,82.98
2017-11-09T01:34:13.026Z,83.02
2017-11-09T01:36:40.714Z,83.01
2017-11-09T01:39:08.401Z,83.01
2017-11-09T01:41:36.136Z,83.05
2017-11-09T01:44:03.752Z,83.05
2017-11-09T01:46:31.384Z,83.25
2017-11-09T01:48:59.064Z,83.33
2017-11-09T01:51:26.694Z,83.25
2017-11-09T01:53:54.381Z,83.28
2017-11-09T01:56:22.036Z,83.21
2017-11-09T01:58:49.657Z,83.12
2017-11-09T02:01:17.283Z,83.25
2017-11-09T02:03:44.953Z,83.56
2017-11-09T02:06:12.633Z,84.01
2017-11-09T02:08:40.260Z,83.99
2017-11-09T02:11:07.932Z,84.37
2017-11-09T02:13:35.553Z,84.60
2017-11-09T02:16:03.175Z,84.97
2017-11-09T02:18:30.835Z,84.88
2017-11-09T02:20:58.521Z,84.80
2017-11-09T02:23:26.206Z,84.81
2017-11-09T02:25:53.896Z,84.59
2017-11-09T02:28:21.592Z,84.32
2017-11-09T02:30:49.285Z,84.18
2017-11-09T02:33:16.992Z,83.88
2017-11-09T02:35:44.625Z,83.68
2017-11-09T02:38:12.277Z,83.68
2017-11-09T02:40:39.947Z,83.91
2017-11-09T02:43:07.570Z,83.37
2017-11-09T02:45:35.212Z,83.53
2017-11-09T02:48:02.909Z,83.31
2017-11-09T02:50:30.533Z,83.48
2017-11-09T02:52:58.409Z,83.45
2017-11-09T02:55:26.091Z,83.35
2017-11-09T02:57:53.724Z,83.21
2017-11-09T03:00:21.418Z,83.31
2017-11-09T03:02:49.100Z,83.16
2017-11-09T03:05:16.723Z,83.30
2017-11-09T03:07:44.412Z,83.63
2017-11-09T03:10:12.093Z,83.57
2017-11-09T03:12:39.712Z,83.73
2017-11-09T03:15:07.333Z,83.90
2017-11-09T03:17:35.017Z,84.20
2017-11-09T03:20:02.655Z,83.94
2017-11-09T03:22:30.277Z,84.03
2017-11-09T03:24:57.960Z,84.41
2017-11-09T03:27:25.646Z,84.38
2017-11-09T03:29:53.320Z,84.66
2017-11-09T03:32:20.986Z,84.87
2017-11-09T03:34:48.605Z,85.07
2017-11-09T03:37:16.226Z,85.81
2017-11-09T03:39:43.944Z,86.29
2017-11-09T03:42:11.553Z,86.52
2017-11-09T03:44:39.168Z,87.02
2017-11-09T03:47:06.937Z,86.90
2017-11-09T03:49:34.552Z,86.96
2017-11-09T03:52:02.194Z,86.64
2017-11-09T03:54:29.930Z,86.74
2017-11-09T03:56:57.547Z,86.94
2017-11-09T03:59:25.163Z,86.62
2017-11-09T04:01:52.833Z,86.48
2017-11-09T04:04:20.448Z,86.45
2017-11-09T04:06:48.071Z,86.22
2017-11-09T04:09:15.743Z,85.89
2017-11-09T04:11:43.420Z,85.98
2017-11-09T04:14:11.029Z,85.98
2017-11-09T04:16:38.753Z,86.09
2017-11-09T04:19:06.364Z,85.93
2017-11-09T04:21:34.040Z,85.72
2017-11-09T04:24:01.712Z,85.70
2017-11-09T04:26:30.320Z,85.59
2017-11-09T04:28:57.948Z,85.39
2017-11-09T04:31:25.617Z,85.27
2017-11-09T04:33:53.245Z,85.28
2017-11-09T04:36:20.861Z,85.25
2017-11-09T04:38:48.574Z,85.12
2017-11-09T04:41:16.187Z,85.06
2017-11-09T04:43:43.811Z,85.25
2017-11-09T04:46:11.472Z,85.30
2017-11-09T04:48:39.092Z,85.60
2017-11-09T04:51:06.716Z,85.58
2017-11-09T04:53:34.400Z,85.62
2017-11-09T04:56:02.028Z,85.72
2017-11-09T04:58:29.704Z,85.62
2017-11-09T05:00:57.372Z,86.14
2017-11-09T05:03:25.044Z,86.21
2017-11-09T05:05:52.679Z,86.49
2017-11-09T05:08:20.408Z,86.70
2017-11-09T05:10:48.027Z,86.92
2017-11-09T05:13:15.693Z,87.02
2017-11-09T05:15:43.369Z,87.12
2017-11-09T05:18:11.048Z,87.18
2017-11-09T05:20:38.732Z,87.21
2017-11-09T05:23:06.459Z,87.20
2017-11-09T05:25:34.150Z,87.20
2017-11-09T05:28:01.787Z,87.30
2017-11-09T05:30:29.541Z,87.28
2017-11-09T05:32:57.220Z,87.31
2017-11-09T05:35:24.848Z,87.31
2017-11-09T05:37:52.512Z,87.36
2017-11-09T05:40:20.142Z,87.28
2017-11-09T05:42:47.838Z,87.12
2017-11-09T05:45:15.576Z,87.11
2017-11-09T05:47:43.198Z,87.16
2017-11-09T05:50:10.901Z,87.20
2017-11-09T05:52:38.725Z,87.13
2017-11-09T05:55:06.352Z,87.15
2017-11-09T05:57:34.041Z,87.01
2017-11-09T06:00:01.720Z,87.06
2017-11-09T06:02:29.386Z,87.20
2017-11-09T06:04:57.021Z,87.20
2017-11-09T06:07:24.688Z,87.13
2017-11-09T06:09:52.381Z,87.19
2017-11-09T06:12:20.061Z,87.25
2017-11-09T06:14:47.805Z,87.14
2017-11-09T06:17:15.433Z,86.95
2017-11-09T06:19:43.046Z,86.96
2017-11-09T06:22:10.769Z,86.68
2017-11-09T06:24:38.388Z,85.90
2017-11-09T06:27:06.013Z,85.79
2017-11-09T06:29:33.852Z,85.61
2017-11-09T06:32:01.476Z,85.42
2017-11-09T06:34:29.101Z,85.56
2017-11-09T06:36:56.773Z,85.54
2017-11-09T06:39:24.459Z,85.56
2017-11-09T06:41:52.079Z,85.15
2017-11-09T06:44:19.757Z,85.56
2017-11-09T06:46:47.377Z,85.82
2017-11-09T06:49:14.987Z,86.17
2017-11-09T06:51:42.660Z,86.49
2017-11-09T06:54:10.292Z,86.43
2017-11-09T06:56:37.995Z,86.58
2017-11-09T06:59:05.682Z,86.42
2017-11-09T07:01:33.303Z,86.24
2017-11-09T07:04:00.930Z,86.15
2017-11-09T07:06:28.601Z,85.83
2017-11-09T07:08:56.245Z,86.09
2017-11-09T07:11:23.864Z,86.04
2017-11-09T07:13:51.536Z,86.15
2017-11-09T07:16:19.224Z,86.34
2017-11-09T07:18:46.913Z,86.62
2017-11-09T07:21:14.601Z,86.66
2017-11-09T07:23:42.228Z,86.74
2017-11-09T07:26:09.866Z,86.81
2017-11-09T07:28:37.709Z,86.89
2017-11-09T07:31:05.353Z,87.02
2017-11-09T07:33:33.040Z,87.14
2017-11-09T07:36:00.729Z,86.91
2017-11-09T07:38:28.350Z,86.74
2017-11-09T07:40:56.021Z,86.90
2017-11-09T07:43:23.704Z,87.00
2017-11-09T07:45:51.335Z,87.06
2017-11-09T07:48:18.956Z,87.09
2017-11-09T07:50:46.646Z,87.18
2017-11-09T07:53:14.268Z,86.80
2017-11-09T07:55:41.884Z,86.73
2017-11-09T07:58:09.581Z,86.71
2017-11-09T08:00:37.280Z,86.61
2017-11-09T08:03:04.906Z,86.62
2017-11-09T08:05:32.590Z,86.47
2017-11-09T08:08:00.276Z,86.31
2017-11-09T08:10:27.913Z,85.92
2017-11-09T08:12:55.605Z,85.23
2017-11-09T08:15:23.230Z,85.30
2017-11-09T08:17:50.869Z,84.76
2017-11-09T08:20:18.554Z,84.63
2017-11-09T08:22:46.184Z,84.11
2017-11-09T08:25:16.640Z,84.16
2017-11-09T08:27:46.057Z,83.49
2017-11-09T08:30:14.088Z,83.50
2017-11-09T08:32:46.328Z,83.13
2017-11-09T08:35:14.019Z,82.92
2017-11-09T08:37:41.656Z,82.60
2017-11-09T08:40:09.289Z,82.52
2017-11-09T08:42:36.968Z,82.68
2017-11-09T08:45:04.588Z,83.01
2017-11-09T08:47:32.217Z,81.55
2017-11-09T08:50:00.065Z,81.15
2017-11-09T08:52:27.703Z,81.37
2017-11-09T08:54:55.397Z,81.22
2017-11-09T08:57:23.064Z,80.89
2017-11-09T08:59:50.708Z,81.39
2017-11-09T09:02:18.337Z,82.53
2017-11-09T09:04:46.107Z,82.09
2017-11-09T09:07:13.749Z,81.70
2017-11-09T09:09:41.383Z,81.49
2017-11-09T09:12:09.128Z,82.72
2017-11-09T09:14:36.807Z,81.95
2017-11-09T09:17:04.500Z,81.54
2017-11-09T09:19:32.228Z,81.90
2017-11-09T09:22:02.425Z,81.54
2017-11-09T09:24:30.169Z,81.21
2017-11-09T09:29:58.018Z,80.30
2017-11-09T09:32:26.162Z,79.53
2017-11-09T09:35:13.061Z,79.29
2017-11-09T09:37:44.637Z,79.44
2017-11-09T09:40:14.432Z,78.35
2017-11-09T09:42:42.125Z,77.77
2017-11-09T09:45:09.937Z,78.46
2017-11-09T09:47:37.698Z,78.21
2017-11-09T09:50:05.471Z,78.59
2017-11-09T09:52:33.177Z,78.79
2017-11-09T09:55:00.875Z,78.89
2017-11-09T09:57:28.585Z,77.96
2017-11-09T09:59:56.328Z,78.20
2017-11-09T10:02:24.026Z,77.44
2017-11-09T10:04:51.673Z,76.92
2017-11-09T10:07:19.418Z,76.35
2017-11-09T10:09:47.177Z,76.58
2017-11-09T10:12:14.935Z,75.29
2017-11-09T10:14:42.617Z,74.77
2017-11-09T10:17:10.300Z,74.93
2017-11-09T10:19:37.993Z,74.63
2017-11-09T10:22:05.681Z,72.95
2017-11-09T10:24:33.304Z,72.99
2017-11-09T10:27:00.936Z,72.61
2017-11-09T10:29:28.678Z,71.78
2017-11-09T10:31:56.314Z,71.21
2017-11-09T10:34:24.016Z,70.93
2017-11-09T10:36:51.701Z,71.16
2017-11-09T10:39:19.320Z,70.91
2017-11-09T10:41:47.053Z,70.82
2017-11-09T10:44:14.725Z,71.73
2017-11-09T10:46:42.357Z,72.75
2017-11-09T10:49:09.989Z,73.78
2017-11-09T10:51:37.677Z,74.33
2017-11-09T10:54:05.315Z,75.74
2017-11-09T10:56:32.956Z,75.33
2017-11-09T10:59:00.702Z,75.55
2017-11-09T11:01:28.337Z,76.07
2017-11-09T11:03:56.038Z,75.16
2017-11-09T11:06:23.788Z,74.85
2017-11-09T11:08:51.421Z,76.27
2017-11-09T11:11:19.129Z,76.03
2017-11-09T11:13:46.803Z,75.21
2017-11-09T11:16:14.445Z,75.98
2017-11-09T11:18:42.086Z,76.65
2017-11-09T11:21:09.766Z,76.76
2017-11-09T11:23:37.405Z,76.39
2017-11-09T11:26:05.025Z,76.46
2017-11-09T11:28:32.693Z,75.63
2017-11-09T11:31:00.321Z,75.87
2017-11-09T11:33:27.940Z,75.99
2017-11-09T11:35:55.615Z,75.74
2017-11-09T11:38:23.240Z,76.26
2017-11-09T11:40:50.864Z,76.48
2017-11-09T11:43:18.536Z,77.05
2017-11-09T11:45:46.173Z,77.37
2017-11-09T11:48:13.800Z,77.60
2017-11-09T11:50:41.486Z,77.36
2017-11-09T11:53:09.106Z,77.05
2017-11-09T11:55:36.750Z,77.37
2017-11-09T11:58:04.420Z,77.17
2017-11-09T12:00:32.064Z,77.42
2017-11-09T12:02:59.765Z,77.00
2017-11-09T12:05:27.500Z,76.88
2017-11-09T12:07:55.124Z,76.96
2017-11-09T12:10:23.701Z,76.42
2017-11-09T12:12:51.372Z,75.69
2017-11-09T12:15:19.051Z,75.42
2017-11-09T12:17:46.674Z,75.02
2017-11-09T12:20:14.358Z,73.99
2017-11-09T12:22:42.045Z,73.76
2017-11-09T12:25:09.748Z,73.89
2017-11-09T12:27:37.426Z,72.58
2017-11-09T12:30:05.074Z,72.26
2017-11-09T12:32:32.780Z,72.52
2017-11-09T12:35:00.461Z,73.30
2017-11-09T12:37:28.153Z,71.85
2017-11-09T12:39:55.849Z,71.67
2017-11-09T12:42:23.582Z,71.25
2017-11-09T12:44:51.369Z,72.58
2017-11-09T12:47:19.122Z,72.60
2017-11-09T12:49:46.894Z,72.64
2017-11-09T12:52:14.521Z,73.71
2017-11-09T12:54:42.153Z,73.04
2017-11-09T12:57:09.882Z,73.86
2017-11-09T12:59:37.980Z,74.05
2017-11-09T13:02:05.625Z,74.70
2017-11-09T13:04:33.354Z,73.70
2017-11-09T13:07:01.043Z,74.10
2017-11-09T13:09:28.668Z,74.29
2017-11-09T13:11:56.461Z,74.36
2017-11-09T13:14:24.184Z,73.85
2017-11-09T13:16:51.859Z,74.48
2017-11-09T13:22:13.428Z,75.58
2017-11-09T13:24:41.100Z,75.50
2017-11-09T13:27:08.784Z,75.58
2017-11-09T13:29:36.457Z,75.88
2017-11-09T13:32:04.293Z,76.28
2017-11-09T13:34:31.964Z,76.45
2017-11-09T13:37:00.357Z,76.42
2017-11-09T13:39:28.030Z,76.21
2017-11-09T13:41:55.687Z,76.03
2017-11-09T13:44:23.380Z,76.93
2017-11-09T13:46:51.064Z,77.16
2017-11-09T13:49:18.682Z,77.13
2017-11-09T13:51:46.313Z,77.59
2017-11-09T13:54:13.991Z,77.53
2017-11-09T13:56:41.620Z,77.80
2017-11-09T13:59:09.243Z,77.67
2017-11-09T14:01:36.975Z,77.74
2017-11-09T14:04:04.617Z,77.50
2017-11-09T14:06:32.259Z,77.34
2017-11-09T14:09:00.010Z,77.27
2017-11-09T14:11:27.640Z,77.18
2017-11-09T14:13:55.330Z,77.72
2017-11-09T14:16:23.024Z,77.27
2017-11-09T14:18:50.718Z,76.65
2017-11-09T14:21:18.343Z,76.98
2017-11-09T14:23:46.160Z,77.18
2017-11-09T14:26:13.788Z,77.33
2017-11-09T14:28:41.473Z,77.68
2017-11-09T14:31:09.157Z,77.84
2017-11-09T14:33:36.787Z,77.97
2017-11-09T14:36:04.416Z,78.03
2017-11-09T14:38:32.101Z,77.99
2017-11-09T14:40:59.729Z,78.50
2017-11-09T14:43:27.413Z,78.51
2017-11-09T14:45:55.143Z,78.89
2017-11-09T14:48:22.771Z,78.65
2017-11-09T14:50:50.401Z,78.68
2017-11-09T14:53:18.089Z,78.67
2017-11-09T14:55:45.719Z,78.69
2017-11-09T14:58:13.336Z,78.78
2017-11-09T15:00:41.083Z,78.73
2017-11-09T15:03:08.712Z,78.53
2017-11-09T15:05:36.388Z,78.73
2017-11-09T15:08:04.216Z,79.06
2017-11-09T15:10:31.891Z,78.94
2017-11-09T15:12:59.572Z,78.70
2017-11-09T15:15:27.254Z,78.65
2017-11-09T15:17:54.913Z,78.48
2017-11-09T15:20:22.646Z,78.76
2017-11-09T15:22:50.441Z,78.83
2017-11-09T15:25:18.132Z,79.14
2017-11-09T15:27:45.773Z,79.10
2017-11-09T15:30:13.561Z,79.13
2017-11-09T15:32:41.255Z,78.98
2017-11-09T15:35:10.785Z,78.88
2017-11-09T15:37:38.456Z,78.93
2017-11-09T15:40:06.139Z,79.07
2017-11-09T15:42:33.772Z,78.99
2017-11-09T15:45:01.448Z,78.56
2017-11-09T15:47:29.084Z,78.55
2017-11-09T15:49:56.712Z,78.62
2017-11-09T15:52:24.384Z,78.41
2017-11-09T15:54:52.017Z,78.62
2017-11-09T15:57:19.637Z,78.68
2017-11-09T15:59:47.326Z,78.83
2017-11-09T16:02:14.952Z,78.91
2017-11-09T16:04:42.673Z,79.20
2017-11-09T16:07:16.139Z,79.14
2017-11-09T16:09:43.817Z,78.85
2017-11-09T16:12:11.430Z,79.09
2017-11-09T16:14:39.250Z,79.34
2017-11-09T16:17:06.873Z,79.37
2017-11-09T16:19:34.496Z,79.44
2017-11-09T16:22:02.159Z,79.83
2017-11-09T16:24:29.788Z,79.88
2017-11-09T16:26:57.456Z,80.06
2017-11-09T16:29:25.126Z,79.81
2017-11-09T16:31:52.752Z,79.88
2017-11-09T16:34:20.377Z,79.74
2017-11-09T16:36:48.046Z,79.70
2017-11-09T16:39:15.688Z,80.14
2017-11-09T16:41:43.378Z,80.34
2017-11-09T16:44:11.049Z,80.46
2017-11-09T16:46:38.674Z,80.80
2017-11-09T16:49:06.301Z,80.75
2017-11-09T16:51:33.996Z,80.97
2017-11-09T16:54:01.659Z,81.19
2017-11-09T16:56:29.273Z,81.28
2017-11-09T16:58:57.009Z,81.13
2017-11-09T17:01:24.621Z,81.23
2017-11-09T17:03:52.244Z,81.06
2017-11-09T17:06:19.927Z,80.79
2017-11-09T17:08:47.630Z,80.79
2017-11-09T17:11:15.327Z,80.34
2017-11-09T17:13:43.011Z,79.99
2017-11-09T17:16:10.641Z,80.34
2017-11-09T17:18:38.326Z,80.65
2017-11-09T17:21:06.011Z,80.44
2017-11-09T17:23:33.644Z,80.44
2017-11-09T17:26:01.279Z,80.45
2017-11-09T17:28:28.960Z,80.31
2017-11-09T17:30:56.632Z,80.20
2017-11-09T17:33:24.322Z,80.09
2017-11-09T17:35:52.218Z,80.03
2017-11-09T17:38:19.919Z,79.95
2017-11-09T17:40:47.601Z,80.14
2017-11-09T17:43:15.309Z,79.94
2017-11-09T17:45:42.991Z,79.77
2017-11-09T17:48:10.609Z,79.73
2017-11-09T17:50:38.357Z,79.59
2017-11-09T17:53:05.982Z,79.34
2017-11-09T17:55:33.657Z,79.38
2017-11-09T17:58:01.329Z,79.23
2017-11-09T18:00:28.961Z,79.30
2017-11-09T18:02:56.648Z,79.28
2017-11-09T18:05:24.392Z,79.43
2017-11-09T18:07:52.019Z,79.27
2017-11-09T18:10:19.697Z,79.64
2017-11-09T18:12:47.377Z,79.43
2017-11-09T18:15:15.106Z,79.18
2017-11-09T18:17:42.744Z,79.83
2017-11-09T18:20:10.433Z,79.24
2017-11-09T18:22:38.111Z,79.19
2017-11-09T18:25:05.729Z,79.17
2017-11-09T18:27:33.557Z,79.22
2017-11-09T18:30:01.180Z,78.99
2017-11-09T18:32:28.813Z,79.06
2017-11-09T18:34:56.557Z,79.24
2017-11-09T18:37:24.176Z,79.10
2017-11-09T18:39:51.805Z,79.12
2017-11-09T18:42:19.543Z,79.14
2017-11-09T18:44:47.225Z,79.11
2017-11-09T18:47:14.964Z,79.46
2017-11-09T18:49:42.770Z,79.72
2017-11-09T18:52:10.438Z,79.86
2017-11-09T18:54:38.057Z,80.14
2017-11-09T18:57:05.729Z,80.19
2017-11-09T18:59:33.375Z,80.22
2017-11-09T19:02:01.000Z,80.27
2017-11-09T19:04:28.712Z,80.34
2017-11-09T19:06:56.343Z,80.47
2017-11-09T19:09:27.682Z,80.88
2017-11-09T19:11:55.476Z,81.38
2017-11-09T19:14:23.112Z,81.29
2017-11-09T19:16:50.795Z,81.45
2017-11-09T19:19:18.484Z,81.51
2017-11-09T19:21:46.105Z,81.78
2017-11-09T19:24:13.793Z,81.87
2017-11-09T19:26:41.525Z,81.98
2017-11-09T19:29:09.152Z,82.10
2017-11-09T19:31:36.776Z,82.22
2017-11-09T19:34:04.453Z,82.38
2017-11-09T19:36:32.072Z,82.63
2017-11-09T19:38:59.704Z,82.75
2017-11-09T19:41:27.441Z,82.81
2017-11-09T19:43:55.057Z,82.88
2017-11-09T19:46:22.703Z,82.66
2017-11-09T19:48:50.489Z,82.51
2017-11-09T19:51:18.121Z,82.50
2017-11-09T19:53:45.749Z,82.52
2017-11-09T19:56:13.437Z,82.33
2017-11-09T19:58:41.063Z,82.51
2017-11-09T20:01:08.700Z,82.43
2017-11-09T20:03:36.385Z,82.40
2017-11-09T20:06:04.100Z,82.48
2017-11-09T20:08:31.781Z,82.70
2017-11-09T20:10:59.448Z,83.00
2017-11-09T20:13:27.093Z,83.14
2017-11-09T20:15:54.725Z,83.20
2017-11-09T20:18:22.453Z,83.44
2017-11-09T20:20:50.081Z,83.67
2017-11-09T20:23:17.703Z,84.12
2017-11-09T20:25:45.368Z,84.32
2017-11-09T20:28:12.991Z,84.43
2017-11-09T20:30:40.610Z,84.82
2017-11-09T20:33:08.293Z,85.26
2017-11-09T20:35:35.920Z,85.64
2017-11-09T20:38:03.613Z,85.86
2017-11-09T20:40:31.336Z,86.05
2017-11-09T20:42:59.043Z,86.14
2017-11-09T20:45:26.728Z,86.21
2017-11-09T20:47:54.461Z,86.26
2017-11-09T20:50:22.084Z,86.48
2017-11-09T20:52:49.773Z,86.48
2017-11-09T20:55:17.527Z,86.37
2017-11-09T20:57:45.154Z,86.22
2017-11-09T21:00:12.787Z,85.98
2017-11-09T21:02:40.625Z,85.81
2017-11-09T21:05:08.250Z,85.75
2017-11-09T21:07:35.881Z,85.74
2017-11-09T21:10:03.565Z,85.47
2017-11-09T21:12:31.204Z,85.26
2017-11-09T21:14:58.823Z,85.10
2017-11-09T21:17:26.501Z,85.16
2017-11-09T21:19:54.135Z,84.97
2017-11-09T21:22:21.765Z,85.12
2017-11-09T21:24:49.538Z,85.10
2017-11-09T21:27:17.218Z,84.99
2017-11-09T21:29:44.837Z,84.72
2017-11-09T21:32:12.670Z,84.28
2017-11-09T21:34:40.289Z,84.11
2017-11-09T21:37:07.919Z,84.03
2017-11-09T21:39:35.656Z,83.88
2017-11-09T21:42:03.280Z,83.81
2017-11-09T21:44:30.900Z,83.69
2017-11-09T21:46:58.625Z,83.56
2017-11-09T21:49:26.309Z,83.53
2017-11-09T21:51:53.937Z,83.62
2017-11-09T21:54:21.608Z,83.68
2017-11-09T21:56:49.281Z,83.74
2017-11-09T21:59:16.926Z,83.95
2017-11-09T22:01:44.593Z,84.21
2017-11-09T22:04:12.225Z,84.38
2017-11-09T22:06:39.847Z,84.47
2017-11-09T22:09:07.581Z,84.46
2017-11-09T22:11:35.260Z,84.58
2017-11-09T22:14:02.894Z,84.65
2017-11-09T22:16:30.560Z,84.92
2017-11-09T22:18:58.191Z,85.39
2017-11-09T22:21:25.870Z,86.05
2017-11-09T22:23:53.543Z,86.26
2017-11-09T22:26:21.232Z,87.02
2017-11-09T22:28:48.906Z,87.35
2017-11-09T22:31:16.584Z,87.68
2017-11-09T22:33:44.269Z,87.75
2017-11-09T22:36:11.888Z,87.89
2017-11-09T22:38:39.571Z,88.05
2017-11-09T22:41:07.186Z,88.28
2017-11-09T22:43:34.813Z,88.29
2017-11-09T22:46:02.593Z,88.29
2017-11-09T22:48:30.216Z,88.24
2017-11-09T22:50:57.893Z,88.38
2017-11-09T22:56:23.755Z,88.70
2017-11-09T22:58:51.485Z,88.67
2017-11-09T23:01:19.194Z,88.75
2017-11-09T23:03:47.025Z,88.82
2017-11-09T23:06:14.750Z,89.13
2017-11-09T23:08:42.428Z,89.40
2017-11-09T23:11:10.166Z,89.59
2017-11-09T23:13:37.885Z,89.44
2017-11-09T23:16:05.516Z,89.35
2017-11-09T23:18:33.188Z,89.24
2017-11-09T23:21:00.932Z,88.93
2017-11-09T23:23:28.543Z,88.62
2017-11-09T23:25:56.172Z,88.37
2017-11-09T23:28:23.849Z,88.07
2017-11-09T23:30:51.472Z,88.03
2017-11-09T23:33:21.868Z,88.10
2017-11-09T23:35:49.602Z,88.15
2017-11-09T23:38:17.213Z,88.28
2017-11-09T23:40:44.888Z,88.38
2017-11-09T23:43:12.568Z,88.64
2017-11-09T23:45:40.183Z,88.89
2017-11-09T23:48:07.801Z,89.16
2017-11-09T23:50:35.526Z,89.12
2017-11-09T23:53:03.163Z,89.13
2017-11-09T23:55:30.774Z,89.08
2017-11-09T23:57:58.549Z,89.09
